Time;durP1;ratioP1;P1;durP2;ratioP2;P2;SDS_P1;SDS_P2;PMS_P1;PMS_P2;Temp;Humidity;BMP_temperature;BMP_pressure;BME280_temperature;BME280_humidity;BME280_pressure;Samples;Min_cycle;Max_cycle;Signal;HPM_P1;HPM_P2
2024/03/16 00:02:05;;;;;;;;;;;11.50;99.90;;;;;;5004635;28;20017;-74
2024/03/16 00:04:32;;;;;;;;;;;11.40;99.90;;;;;;5003479;28;20470;-73
2024/03/16 00:06:58;;;;;;;;;;;11.30;99.90;;;;;;5003881;28;20017;-74
2024/03/16 00:09:24;;;;;;;;;;;11.50;99.90;;;;;;5004010;28;19994;-74
2024/03/16 00:11:50;;;;;;;;;;;11.40;99.90;;;;;;5009315;28;20536;-74
2024/03/16 00:14:16;;;;;;;;;;;11.40;99.90;;;;;;5008021;28;20945;-74
2024/03/16 00:16:42;;;;;;;;;;;11.40;99.90;;;;;;5006194;28;20085;-74
2024/03/16 00:19:07;;;;;;;;;;;11.40;99.90;;;;;;5007740;28;20044;-74
2024/03/16 00:21:33;;;;;;;;;;;11.40;99.90;;;;;;5004312;28;20104;-74
2024/03/16 00:23:58;;;;;;;;;;;11.50;99.90;;;;;;5005912;28;19998;-75
2024/03/16 00:26:24;;;;;;;;;;;11.60;99.90;;;;;;5006590;28;19994;-75
2024/03/16 00:28:50;;;;;;;;;;;11.50;99.90;;;;;;5004439;28;20025;-75
2024/03/16 00:31:18;;;;;;;;;;;11.40;99.90;;;;;;5003819;28;20491;-75
2024/03/16 00:33:43;;;;;;;;;;;11.40;99.90;;;;;;5005358;28;20016;-75
2024/03/16 00:36:09;;;;;;;;;;;11.30;99.90;;;;;;5007720;28;20454;-75
2024/03/16 00:38:35;;;;;;;;;;;11.50;99.90;;;;;;5007182;28;20456;-75
2024/03/16 00:41:02;;;;;;;;;;;11.50;99.90;;;;;;5008262;28;20010;-76
2024/03/16 00:43:27;;;;;;;;;;;11.40;99.90;;;;;;5010731;28;20005;-76
2024/03/16 00:45:53;;;;;;;;;;;11.40;99.90;;;;;;5010953;28;19991;-75
2024/03/16 00:48:19;;;;;;;;;;;11.30;99.90;;;;;;5006156;28;20101;-75
2024/03/16 00:50:44;;;;;;;;;;;11.30;99.90;;;;;;5003425;28;20005;-74
2024/03/16 00:53:10;;;;;;;;;;;11.30;99.90;;;;;;5004698;28;20080;-74
2024/03/16 00:55:35;;;;;;;;;;;11.30;99.90;;;;;;5003037;28;20001;-75
2024/03/16 00:58:01;;;;;;;;;;;11.40;99.90;;;;;;5004778;28;20136;-75
2024/03/16 01:00:27;;;;;;;;;;;11.50;99.90;;;;;;5008109;28;20093;-75
2024/03/16 01:02:53;;;;;;;;;;;11.60;99.90;;;;;;5005982;28;19998;-75
2024/03/16 01:05:19;;;;;;;;;;;11.60;99.90;;;;;;5003713;28;19991;-75
2024/03/16 01:07:45;;;;;;;;;;;11.60;99.90;;;;;;5007943;28;19997;-75
2024/03/16 01:10:11;;;;;;;;;;;11.70;99.90;;;;;;5004911;28;19994;-75
2024/03/16 01:12:37;;;;;;;;;;;11.60;99.90;;;;;;5007490;28;20088;-75
2024/03/16 01:15:03;;;;;;;;;;;11.60;99.90;;;;;;5003101;28;20417;-75
2024/03/16 01:17:29;;;;;;;;;;;11.60;99.90;;;;;;5012919;28;19993;-75
2024/03/16 01:19:55;;;;;;;;;;;11.50;99.90;;;;;;5003731;28;20036;-75
2024/03/16 01:22:21;;;;;;;;;;;11.40;99.90;;;;;;5003947;28;20010;-75
2024/03/16 01:24:47;;;;;;;;;;;11.50;99.90;;;;;;5004163;28;20032;-75
2024/03/16 01:27:13;;;;;;;;;;;11.40;99.90;;;;;;5004994;28;20038;-75
2024/03/16 01:29:38;;;;;;;;;;;11.40;99.90;;;;;;5008601;28;19994;-75
2024/03/16 01:32:08;;;;;;;;;;;11.30;99.90;;;;;;5006886;28;19994;-75
2024/03/16 01:34:34;;;;;;;;;;;11.40;99.90;;;;;;5003221;28;20127;-75
2024/03/16 01:37:00;;;;;;;;;;;11.40;99.90;;;;;;5005505;28;19999;-75
2024/03/16 01:39:25;;;;;;;;;;;11.40;99.90;;;;;;5006491;28;20545;-75
2024/03/16 01:41:51;;;;;;;;;;;11.40;99.90;;;;;;5011845;28;20006;-76
2024/03/16 01:44:17;;;;;;;;;;;11.30;99.90;;;;;;5011404;28;19994;-75
2024/03/16 01:46:42;;;;;;;;;;;11.30;99.90;;;;;;5004620;28;19990;-75
2024/03/16 01:49:08;;;;;;;;;;;11.40;99.90;;;;;;5003986;28;19996;-75
2024/03/16 01:51:38;;;;;;;;;;;11.30;99.90;;;;;;5006618;28;20378;-75
2024/03/16 01:54:04;;;;;;;;;;;11.30;99.90;;;;;;5005485;28;19990;-75
2024/03/16 01:56:30;;;;;;;;;;;11.40;99.90;;;;;;5003451;28;20061;-75
2024/03/16 01:58:55;;;;;;;;;;;11.40;99.90;;;;;;5010898;28;20093;-75
2024/03/16 02:01:21;;;;;;;;;;;11.40;99.90;;;;;;5008539;28;20129;-74
2024/03/16 02:03:48;;;;;;;;;;;11.30;99.90;;;;;;5009514;28;20484;-74
2024/03/16 02:06:14;;;;;;;;;;;11.30;99.90;;;;;;5009479;28;20077;-74
2024/03/16 02:08:40;;;;;;;;;;;11.30;99.90;;;;;;5011991;28;19994;-75
2024/03/16 02:11:05;;;;;;;;;;;11.30;99.90;;;;;;5009794;28;19992;-74
2024/03/16 02:13:31;;;;;;;;;;;11.30;99.90;;;;;;5010081;28;20714;-75
2024/03/16 02:15:57;;;;;;;;;;;11.30;99.90;;;;;;5009875;28;20048;-74
2024/03/16 02:18:22;;;;;;;;;;;11.30;99.90;;;;;;5005217;28;19990;-74
2024/03/16 02:20:48;;;;;;;;;;;11.30;99.90;;;;;;5014059;28;20012;-74
2024/03/16 02:23:15;;;;;;;;;;;11.30;99.90;;;;;;5005863;28;20006;-74
2024/03/16 02:25:42;;;;;;;;;;;11.20;99.90;;;;;;5005624;28;19994;-74
2024/03/16 02:28:08;;;;;;;;;;;11.20;99.90;;;;;;5005532;28;20731;-74
2024/03/16 02:30:33;;;;;;;;;;;11.20;99.90;;;;;;5005476;28;19990;-74
2024/03/16 02:32:59;;;;;;;;;;;11.20;99.90;;;;;;5007785;28;20462;-74
2024/03/16 02:35:25;;;;;;;;;;;11.10;99.90;;;;;;5004989;28;19993;-74
2024/03/16 02:37:50;;;;;;;;;;;11.00;99.90;;;;;;5008422;28;20002;-74
2024/03/16 02:40:17;;;;;;;;;;;11.00;99.90;;;;;;5007710;28;20037;-74
2024/03/16 02:42:43;;;;;;;;;;;11.10;99.90;;;;;;5008080;28;20010;-75
2024/03/16 02:45:09;;;;;;;;;;;11.10;99.90;;;;;;5004725;28;20934;-74
2024/03/16 02:47:35;;;;;;;;;;;11.10;99.90;;;;;;5009208;28;19994;-74
2024/03/16 02:50:03;;;;;;;;;;;11.00;99.90;;;;;;5005722;28;20029;-74
2024/03/16 02:52:30;;;;;;;;;;;11.00;99.90;;;;;;5005304;28;19994;-74
2024/03/16 02:54:55;;;;;;;;;;;11.00;99.90;;;;;;5009260;28;20034;-74
2024/03/16 02:57:22;;;;;;;;;;;10.90;99.90;;;;;;5004311;28;20422;-74
2024/03/16 02:59:47;;;;;;;;;;;11.00;99.90;;;;;;5004470;28;19998;-74
2024/03/16 03:02:13;;;;;;;;;;;11.00;99.90;;;;;;5005184;28;20012;-74
2024/03/16 03:04:39;;;;;;;;;;;11.00;99.90;;;;;;5006268;28;19995;-75
2024/03/16 03:07:05;;;;;;;;;;;11.00;99.90;;;;;;5004268;28;20013;-74
2024/03/16 03:09:32;;;;;;;;;;;10.90;99.90;;;;;;5006525;28;19998;-75
2024/03/16 03:11:58;;;;;;;;;;;11.00;99.90;;;;;;5003787;28;20763;-74
2024/03/16 03:14:24;;;;;;;;;;;11.00;99.90;;;;;;5010449;28;19991;-74
2024/03/16 03:16:49;;;;;;;;;;;11.10;99.90;;;;;;5007778;28;20006;-74
2024/03/16 03:19:16;;;;;;;;;;;11.10;99.90;;;;;;5004119;28;19994;-74
2024/03/16 03:21:41;;;;;;;;;;;11.00;99.90;;;;;;5008276;28;20014;-74
2024/03/16 03:24:07;;;;;;;;;;;10.90;99.90;;;;;;5004759;28;19995;-74
2024/03/16 03:26:33;;;;;;;;;;;10.90;99.90;;;;;;5004397;28;19994;-74
2024/03/16 03:28:59;;;;;;;;;;;11.00;99.90;;;;;;5004284;28;19994;-74
2024/03/16 03:31:25;;;;;;;;;;;11.00;99.90;;;;;;5004904;28;20418;-74
2024/03/16 03:33:51;;;;;;;;;;;11.10;99.90;;;;;;5006655;28;19998;-74
2024/03/16 03:36:16;;;;;;;;;;;11.10;99.90;;;;;;5007541;28;20001;-74
2024/03/16 03:38:43;;;;;;;;;;;11.00;99.90;;;;;;5005205;28;20075;-74
2024/03/16 03:41:08;;;;;;;;;;;11.00;99.90;;;;;;5008462;28;20033;-75
2024/03/16 03:43:36;;;;;;;;;;;11.10;99.90;;;;;;5005027;28;20355;-75
2024/03/16 03:46:04;;;;;;;;;;;11.10;99.90;;;;;;5004104;28;19997;-74
2024/03/16 03:48:40;;;;;;;;;;;11.00;99.90;;;;;;5004421;28;20487;-76
2024/03/16 03:51:06;;;;;;;;;;;11.00;99.90;;;;;;4997325;28;20037;-75
2024/03/16 03:53:32;;;;;;;;;;;11.00;99.90;;;;;;5004314;28;20905;-75
2024/03/16 03:55:59;;;;;;;;;;;11.10;99.90;;;;;;5006206;28;19994;-75
2024/03/16 03:58:25;;;;;;;;;;;10.90;99.90;;;;;;5004023;28;20719;-75
2024/03/16 04:00:51;;;;;;;;;;;11.00;99.90;;;;;;5004405;28;19982;-75
2024/03/16 04:03:16;;;;;;;;;;;11.00;99.90;;;;;;5005136;28;19995;-75
2024/03/16 04:05:43;;;;;;;;;;;11.00;99.90;;;;;;5006693;28;19995;-75
2024/03/16 04:08:09;;;;;;;;;;;11.00;99.90;;;;;;5008724;28;20102;-75
2024/03/16 04:10:35;;;;;;;;;;;11.10;99.90;;;;;;5006929;28;20466;-74
2024/03/16 04:13:00;;;;;;;;;;;10.90;99.90;;;;;;5003760;28;19991;-74
2024/03/16 04:15:26;;;;;;;;;;;10.90;99.90;;;;;;5003557;28;19994;-74
2024/03/16 04:17:51;;;;;;;;;;;10.90;99.90;;;;;;5003560;28;20105;-73
2024/03/16 04:20:17;;;;;;;;;;;10.90;99.90;;;;;;5002946;28;19990;-74
2024/03/16 04:22:43;;;;;;;;;;;10.90;99.90;;;;;;5002821;28;20505;-73
2024/03/16 04:25:11;;;;;;;;;;;11.00;99.90;;;;;;5003707;28;20002;-74
2024/03/16 04:27:38;;;;;;;;;;;10.90;99.90;;;;;;5004216;28;20066;-73
2024/03/16 04:30:05;;;;;;;;;;;10.90;99.90;;;;;;5003546;28;20064;-73
2024/03/16 04:32:33;;;;;;;;;;;10.90;99.90;;;;;;5003971;28;19997;-74
2024/03/16 04:34:59;;;;;;;;;;;10.80;99.90;;;;;;5003462;28;20001;-74
2024/03/16 04:37:24;;;;;;;;;;;11.00;99.90;;;;;;5001763;28;19994;-74
2024/03/16 04:39:50;;;;;;;;;;;10.90;99.90;;;;;;5002912;28;20013;-74
2024/03/16 04:42:15;;;;;;;;;;;10.90;99.90;;;;;;5005725;28;20413;-74
2024/03/16 04:44:41;;;;;;;;;;;11.00;99.90;;;;;;5011153;28;20140;-74
2024/03/16 04:47:07;;;;;;;;;;;10.90;99.90;;;;;;5008007;28;19990;-74
2024/03/16 04:49:32;;;;;;;;;;;10.90;99.90;;;;;;5008671;28;20029;-74
2024/03/16 04:51:58;;;;;;;;;;;10.90;99.90;;;;;;5002880;28;19990;-74
2024/03/16 04:54:24;;;;;;;;;;;11.00;99.90;;;;;;5006591;28;19990;-74
2024/03/16 04:56:49;;;;;;;;;;;11.00;99.90;;;;;;5006979;28;20026;-73
2024/03/16 04:59:15;;;;;;;;;;;10.90;99.90;;;;;;5005978;28;19994;-75
2024/03/16 05:01:41;;;;;;;;;;;10.90;99.90;;;;;;5003865;28;20756;-74
2024/03/16 05:04:07;;;;;;;;;;;10.80;99.90;;;;;;5003024;28;19998;-74
2024/03/16 05:06:36;;;;;;;;;;;10.70;99.90;;;;;;5001005;28;20021;-74
2024/03/16 05:09:06;;;;;;;;;;;10.70;99.90;;;;;;5002589;28;20002;-75
2024/03/16 05:11:32;;;;;;;;;;;10.70;99.90;;;;;;5005410;28;19995;-74
2024/03/16 05:14:02;;;;;;;;;;;10.70;99.90;;;;;;5005054;28;20220;-75
2024/03/16 05:16:28;;;;;;;;;;;10.80;99.90;;;;;;5010304;28;20002;-75
2024/03/16 05:18:53;;;;;;;;;;;10.80;99.90;;;;;;5009477;28;19991;-75
2024/03/16 05:21:19;;;;;;;;;;;10.80;99.90;;;;;;5016123;28;20009;-75
2024/03/16 05:23:45;;;;;;;;;;;10.80;99.90;;;;;;5006718;28;19994;-74
2024/03/16 05:26:11;;;;;;;;;;;10.80;99.90;;;;;;5010883;28;19990;-74
2024/03/16 05:28:38;;;;;;;;;;;10.90;99.90;;;;;;5005794;28;20060;-74
2024/03/16 05:31:04;;;;;;;;;;;10.90;99.90;;;;;;5006963;28;19991;-74
2024/03/16 05:33:30;;;;;;;;;;;10.80;99.90;;;;;;5006313;28;20041;-74
2024/03/16 05:35:55;;;;;;;;;;;10.90;99.90;;;;;;5002306;28;19994;-74
2024/03/16 05:38:23;;;;;;;;;;;11.00;99.90;;;;;;5006989;28;20720;-74
2024/03/16 05:40:48;;;;;;;;;;;11.10;99.90;;;;;;5006475;28;20084;-75
2024/03/16 05:43:14;;;;;;;;;;;11.10;99.90;;;;;;5007280;28;20017;-75
2024/03/16 05:45:40;;;;;;;;;;;11.10;99.90;;;;;;5010554;28;20005;-75
2024/03/16 05:48:06;;;;;;;;;;;10.80;99.90;;;;;;5006079;28;20041;-74
2024/03/16 05:50:31;;;;;;;;;;;10.70;99.90;;;;;;5006511;28;20094;-75
2024/03/16 05:52:57;;;;;;;;;;;10.80;99.90;;;;;;5005808;28;19996;-74
2024/03/16 05:55:22;;;;;;;;;;;10.80;99.90;;;;;;5012105;28;19994;-74
2024/03/16 05:57:48;;;;;;;;;;;10.70;99.90;;;;;;5006378;28;20033;-74
2024/03/16 06:00:14;;;;;;;;;;;10.80;99.90;;;;;;5003549;28;20038;-74
2024/03/16 06:02:40;;;;;;;;;;;10.80;99.90;;;;;;5010559;28;20110;-74
2024/03/16 06:05:07;;;;;;;;;;;10.80;99.90;;;;;;5010567;28;19990;-74
2024/03/16 06:07:32;;;;;;;;;;;10.80;99.90;;;;;;5012579;28;20117;-75
2024/03/16 06:09:58;;;;;;;;;;;10.70;99.90;;;;;;5011468;28;20597;-75
2024/03/16 06:12:24;;;;;;;;;;;10.80;99.90;;;;;;5004894;28;19990;-74
2024/03/16 06:14:49;;;;;;;;;;;10.80;99.90;;;;;;5005373;28;20112;-74
2024/03/16 06:17:15;;;;;;;;;;;10.80;99.90;;;;;;5006182;28;19994;-75
2024/03/16 06:19:41;;;;;;;;;;;10.70;99.90;;;;;;5006089;28;19999;-74
2024/03/16 06:22:07;;;;;;;;;;;10.80;99.90;;;;;;5005669;28;20775;-74
2024/03/16 06:24:33;;;;;;;;;;;10.80;99.90;;;;;;5008117;28;19994;-75
2024/03/16 06:27:05;;;;;;;;;;;10.80;99.90;;;;;;5005229;28;20001;-74
2024/03/16 06:29:31;;;;;;;;;;;10.90;99.90;;;;;;5004519;28;20105;-74
2024/03/16 06:32:05;;;;;;;;;;;10.90;99.90;;;;;;5004349;28;20068;-75
2024/03/16 06:34:31;;;;;;;;;;;10.90;99.90;;;;;;5009855;28;20081;-74
2024/03/16 06:36:56;;;;;;;;;;;10.90;99.90;;;;;;5005021;28;20800;-74
2024/03/16 06:39:23;;;;;;;;;;;10.90;99.90;;;;;;5009252;28;20000;-74
2024/03/16 06:41:49;;;;;;;;;;;10.90;99.90;;;;;;5011297;28;20017;-74
2024/03/16 06:44:15;;;;;;;;;;;11.10;99.90;;;;;;5010773;28;19990;-75
2024/03/16 06:46:41;;;;;;;;;;;11.10;99.90;;;;;;5007086;28;20369;-75
2024/03/16 06:49:06;;;;;;;;;;;11.10;99.90;;;;;;5007011;28;20037;-75
2024/03/16 06:51:32;;;;;;;;;;;11.30;99.90;;;;;;5006707;28;20017;-75
2024/03/16 06:53:58;;;;;;;;;;;11.40;99.90;;;;;;5008559;28;20772;-74
2024/03/16 06:56:23;;;;;;;;;;;11.50;99.90;;;;;;5008253;28;20029;-74
2024/03/16 06:58:49;;;;;;;;;;;11.70;99.90;;;;;;5012119;28;19994;-75
2024/03/16 07:01:14;;;;;;;;;;;11.70;99.90;;;;;;5008819;28;20410;-74
2024/03/16 07:03:40;;;;;;;;;;;11.90;99.90;;;;;;5006612;28;20008;-74
2024/03/16 07:06:08;;;;;;;;;;;12.00;99.90;;;;;;5005586;28;19990;-74
2024/03/16 07:08:34;;;;;;;;;;;12.10;99.90;;;;;;5007377;28;19995;-75
2024/03/16 07:11:00;;;;;;;;;;;12.10;99.90;;;;;;5003789;28;19995;-75
2024/03/16 07:13:26;;;;;;;;;;;12.10;99.90;;;;;;5012999;28;20036;-75
2024/03/16 07:15:51;;;;;;;;;;;12.10;99.90;;;;;;5008096;28;19995;-76
2024/03/16 07:18:17;;;;;;;;;;;12.10;99.90;;;;;;5003511;28;19994;-76
2024/03/16 07:20:43;;;;;;;;;;;12.30;99.90;;;;;;5005320;28;19994;-76
2024/03/16 07:23:11;;;;;;;;;;;12.50;99.90;;;;;;5009763;28;20108;-73
2024/03/16 07:25:36;;;;;;;;;;;12.30;99.90;;;;;;5003130;28;19994;-73
2024/03/16 07:28:04;;;;;;;;;;;12.20;99.90;;;;;;5007122;28;20431;-72
2024/03/16 07:30:29;;;;;;;;;;;12.40;99.90;;;;;;5006074;28;19990;-73
2024/03/16 07:32:56;;;;;;;;;;;12.60;99.90;;;;;;5006723;28;20122;-74
2024/03/16 07:35:21;;;;;;;;;;;12.80;99.90;;;;;;5003626;28;20364;-74
2024/03/16 07:37:47;;;;;;;;;;;12.80;99.90;;;;;;5003237;28;19995;-74
2024/03/16 07:40:15;;;;;;;;;;;12.80;99.90;;;;;;5002909;28;20076;-75
2024/03/16 07:42:44;;;;;;;;;;;12.70;99.90;;;;;;5003425;28;20011;-72
2024/03/16 07:45:09;;;;;;;;;;;12.90;99.90;;;;;;5002814;28;19999;-73
2024/03/16 07:47:35;;;;;;;;;;;13.00;99.90;;;;;;5003492;28;20446;-73
2024/03/16 07:50:03;;;;;;;;;;;13.20;99.90;;;;;;5003766;28;20002;-74
2024/03/16 07:52:28;;;;;;;;;;;13.50;99.90;;;;;;5003637;28;20077;-72
2024/03/16 07:54:54;;;;;;;;;;;13.80;99.90;;;;;;5007549;28;20077;-73
2024/03/16 07:57:19;;;;;;;;;;;13.70;99.90;;;;;;5002323;28;20060;-73
2024/03/16 07:59:45;;;;;;;;;;;13.70;99.90;;;;;;5003964;28;19995;-73
2024/03/16 08:02:10;;;;;;;;;;;13.60;99.90;;;;;;5003907;28;20524;-72
2024/03/16 08:04:36;;;;;;;;;;;13.60;99.90;;;;;;5004785;28;20002;-73
2024/03/16 08:07:03;;;;;;;;;;;13.50;99.90;;;;;;5010033;28;20073;-73
2024/03/16 08:09:29;;;;;;;;;;;13.30;99.90;;;;;;5004673;28;20025;-73
2024/03/16 08:11:57;;;;;;;;;;;13.30;99.90;;;;;;5004914;28;19990;-73
2024/03/16 08:14:23;;;;;;;;;;;13.30;99.90;;;;;;5006863;28;20144;-74
2024/03/16 08:16:48;;;;;;;;;;;13.10;99.90;;;;;;5002765;28;20034;-74
2024/03/16 08:19:16;;;;;;;;;;;13.10;99.90;;;;;;5004220;28;19997;-73
2024/03/16 08:21:45;;;;;;;;;;;13.20;99.90;;;;;;5008890;28;20050;-71
2024/03/16 08:24:10;;;;;;;;;;;13.00;99.90;;;;;;5002080;28;20005;-72
2024/03/16 08:26:36;;;;;;;;;;;12.80;99.90;;;;;;5005478;28;19990;-75
2024/03/16 08:29:01;;;;;;;;;;;13.30;99.90;;;;;;5002952;28;19995;-75
2024/03/16 08:31:27;;;;;;;;;;;13.30;99.90;;;;;;5009928;28;20092;-74
2024/03/16 08:33:52;;;;;;;;;;;13.70;99.90;;;;;;5008944;28;20709;-75
2024/03/16 08:36:18;;;;;;;;;;;13.90;99.90;;;;;;5003534;28;20463;-76
2024/03/16 08:38:43;;;;;;;;;;;14.10;99.90;;;;;;5008642;28;19990;-74
2024/03/16 08:41:09;;;;;;;;;;;14.20;99.90;;;;;;5002732;28;20014;-74
2024/03/16 08:43:35;;;;;;;;;;;14.40;99.90;;;;;;5003557;28;20470;-74
2024/03/16 08:46:01;;;;;;;;;;;14.60;99.90;;;;;;5008142;28;20719;-75
2024/03/16 08:48:27;;;;;;;;;;;14.50;99.90;;;;;;5004441;28;20652;-75
2024/03/16 08:50:56;;;;;;;;;;;14.30;99.90;;;;;;4999998;28;20037;-75
2024/03/16 08:53:21;;;;;;;;;;;14.10;99.90;;;;;;5000033;28;19990;-74
2024/03/16 08:55:47;;;;;;;;;;;14.00;99.90;;;;;;5009476;28;19995;-76
2024/03/16 08:58:12;;;;;;;;;;;14.00;99.90;;;;;;5007066;28;20378;-74
2024/03/16 09:00:38;;;;;;;;;;;14.00;99.90;;;;;;5012941;28;20875;-75
2024/03/16 09:03:04;;;;;;;;;;;14.20;99.90;;;;;;5003616;28;20006;-75
2024/03/16 09:05:30;;;;;;;;;;;14.50;99.90;;;;;;5012390;28;20002;-75
2024/03/16 09:07:56;;;;;;;;;;;14.80;99.90;;;;;;5009914;28;19990;-76
2024/03/16 09:10:21;;;;;;;;;;;15.60;99.90;;;;;;5016154;28;19994;-74
2024/03/16 09:12:47;;;;;;;;;;;15.60;99.90;;;;;;5010208;28;20036;-76
2024/03/16 09:15:13;;;;;;;;;;;15.50;99.90;;;;;;5017397;28;20043;-75
2024/03/16 09:17:38;;;;;;;;;;;16.00;99.90;;;;;;5010595;28;20073;-76
2024/03/16 09:20:07;;;;;;;;;;;16.90;99.90;;;;;;5010811;28;19991;-74
2024/03/16 09:22:34;;;;;;;;;;;17.90;97.60;;;;;;5011669;28;20006;-76
2024/03/16 09:25:01;;;;;;;;;;;18.50;94.70;;;;;;5017566;28;20365;-75
2024/03/16 09:27:27;;;;;;;;;;;17.90;94.70;;;;;;5013808;28;20821;-74
2024/03/16 09:29:52;;;;;;;;;;;17.30;95.30;;;;;;5001526;28;20000;-77
2024/03/16 09:32:18;;;;;;;;;;;17.20;95.40;;;;;;5002754;28;19990;-75
2024/03/16 09:34:45;;;;;;;;;;;16.90;93.70;;;;;;5002894;28;19993;-75
2024/03/16 09:37:11;;;;;;;;;;;16.70;93.20;;;;;;4999735;28;19994;-75
2024/03/16 09:39:37;;;;;;;;;;;18.40;90.20;;;;;;5007224;28;19994;-75
2024/03/16 09:42:04;;;;;;;;;;;19.80;87.80;;;;;;4997195;28;20013;-77
2024/03/16 09:44:29;;;;;;;;;;;18.80;85.00;;;;;;5001402;28;19995;-77
2024/03/16 09:46:56;;;;;;;;;;;20.10;82.60;;;;;;5001698;28;19990;-76
2024/03/16 09:49:24;;;;;;;;;;;20.50;77.00;;;;;;5000993;28;20004;-75
2024/03/16 09:51:50;;;;;;;;;;;19.60;76.90;;;;;;4998244;28;20072;-76
2024/03/16 09:54:16;;;;;;;;;;;18.40;83.00;;;;;;5000079;28;19994;-76
2024/03/16 09:56:41;;;;;;;;;;;17.80;84.90;;;;;;5001183;28;20029;-75
2024/03/16 09:59:10;;;;;;;;;;;17.60;85.50;;;;;;5006742;28;20000;-73
2024/03/16 10:01:36;;;;;;;;;;;17.40;87.30;;;;;;5004729;28;20010;-74
2024/03/16 10:04:01;;;;;;;;;;;17.40;86.40;;;;;;5004857;28;20001;-75
2024/03/16 10:06:27;;;;;;;;;;;17.60;89.00;;;;;;5008072;28;19990;-75
2024/03/16 10:09:12;;;;;;;;;;;17.80;87.30;;;;;;5006668;28;20179;-81
2024/03/16 10:11:39;;;;;;;;;;;18.40;86.50;;;;;;5001729;28;20077;-78
2024/03/16 10:14:07;;;;;;;;;;;18.90;85.50;;;;;;5003984;28;19990;-78
2024/03/16 10:16:33;;;;;;;;;;;19.10;83.80;;;;;;5004069;28;20041;-76
2024/03/16 10:18:58;;;;;;;;;;;18.90;79.60;;;;;;5004696;28;19994;-75
2024/03/16 10:21:29;;;;;;;;;;;19.20;82.70;;;;;;5007371;28;20489;-77
2024/03/16 10:23:57;;;;;;;;;;;19.00;81.00;;;;;;5002964;28;19998;-76
2024/03/16 10:26:23;;;;;;;;;;;18.70;82.70;;;;;;5005909;28;20034;-78
2024/03/16 10:28:50;;;;;;;;;;;18.40;79.60;;;;;;5004928;28;19994;-78
2024/03/16 10:31:17;;;;;;;;;;;18.50;84.50;;;;;;5008608;28;20029;-75
2024/03/16 10:33:43;;;;;;;;;;;18.50;84.20;;;;;;5004770;28;20001;-77
2024/03/16 10:36:13;;;;;;;;;;;17.80;80.60;;;;;;5005339;28;20540;-76
2024/03/16 10:38:41;;;;;;;;;;;18.20;80.90;;;;;;5004490;28;19994;-77
2024/03/16 10:41:09;;;;;;;;;;;17.90;82.70;;;;;;5003754;28;19995;-76
2024/03/16 10:43:36;;;;;;;;;;;18.00;84.60;;;;;;5005059;28;20021;-79
2024/03/16 10:46:01;;;;;;;;;;;17.90;85.00;;;;;;5004882;28;20666;-74
2024/03/16 10:48:27;;;;;;;;;;;18.00;84.30;;;;;;5005502;28;20001;-74
2024/03/16 10:50:56;;;;;;;;;;;17.90;84.60;;;;;;5007929;28;19990;-78
2024/03/16 10:53:24;;;;;;;;;;;18.00;82.90;;;;;;5005108;28;19986;-79
2024/03/16 10:55:49;;;;;;;;;;;18.00;78.80;;;;;;5010436;28;19994;-77
2024/03/16 10:58:22;;;;;;;;;;;18.20;77.90;;;;;;5005566;28;20397;-78
2024/03/16 11:00:51;;;;;;;;;;;18.50;79.90;;;;;;5008972;28;19994;-77
2024/03/16 11:03:27;;;;;;;;;;;18.60;75.80;;;;;;5005509;28;20003;-73
2024/03/16 11:06:14;;;;;;;;;;;18.70;79.80;;;;;;5010527;28;20263;-77
2024/03/16 11:08:45;;;;;;;;;;;18.50;75.30;;;;;;5002600;28;19990;-74
2024/03/16 11:11:28;;;;;;;;;;;18.70;74.90;;;;;;5004195;28;20275;-76
2024/03/16 11:13:57;;;;;;;;;;;18.80;76.90;;;;;;5004452;28;20048;-79
2024/03/16 11:16:27;;;;;;;;;;;18.80;72.20;;;;;;5004621;28;19990;-77
2024/03/16 11:18:55;;;;;;;;;;;19.10;72.40;;;;;;5010666;28;19990;-77
2024/03/16 11:21:22;;;;;;;;;;;18.90;74.80;;;;;;5004374;28;20019;-75
2024/03/16 11:23:48;;;;;;;;;;;18.50;75.50;;;;;;5004073;28;19994;-79
2024/03/16 11:26:26;;;;;;;;;;;19.00;77.30;;;;;;5004685;28;20073;-78
2024/03/16 11:28:52;;;;;;;;;;;19.10;75.00;;;;;;5004341;28;19990;-77
2024/03/16 11:31:39;;;;;;;;;;;18.90;73.50;;;;;;5004152;28;19990;-81
2024/03/16 11:34:09;;;;;;;;;;;19.40;72.00;;;;;;5004507;28;19990;-77
2024/03/16 11:36:38;;;;;;;;;;;19.20;71.80;;;;;;5004158;28;19997;-77
2024/03/16 11:39:15;;;;;;;;;;;18.90;71.40;;;;;;4995822;28;20118;-80
2024/03/16 11:41:44;;;;;;;;;;;18.90;70.90;;;;;;5004254;28;20010;-80
2024/03/16 11:44:13;;;;;;;;;;;18.60;73.00;;;;;;5014950;28;19993;-78
2024/03/16 11:46:42;;;;;;;;;;;18.80;72.40;;;;;;5003412;28;20046;-83
2024/03/16 11:49:09;;;;;;;;;;;18.90;69.10;;;;;;5001632;28;19997;-81
2024/03/16 11:51:38;;;;;;;;;;;19.30;70.70;;;;;;5008011;28;19998;-79
2024/03/16 11:54:04;;;;;;;;;;;19.40;69.20;;;;;;5007187;28;19998;-79
2024/03/16 11:56:31;;;;;;;;;;;19.20;69.80;;;;;;5003652;28;20069;-79
2024/03/16 11:58:57;;;;;;;;;;;18.80;70.50;;;;;;5004726;28;19994;-78
2024/03/16 12:01:22;;;;;;;;;;;18.70;70.90;;;;;;5003459;28;20017;-81
2024/03/16 12:03:48;;;;;;;;;;;18.70;71.00;;;;;;5010807;28;20032;-80
2024/03/16 12:06:14;;;;;;;;;;;18.50;71.80;;;;;;5005170;28;20001;-80
2024/03/16 12:08:40;;;;;;;;;;;18.20;73.60;;;;;;5003493;28;20012;-77
2024/03/16 12:11:08;;;;;;;;;;;18.10;71.20;;;;;;5010203;28;20041;-77
2024/03/16 12:13:34;;;;;;;;;;;18.10;72.20;;;;;;5005232;28;20031;-79
2024/03/16 12:15:59;;;;;;;;;;;18.00;70.70;;;;;;5006796;28;20002;-78
2024/03/16 12:18:26;;;;;;;;;;;18.10;73.30;;;;;;5003352;28;20457;-77
2024/03/16 12:20:54;;;;;;;;;;;18.00;72.20;;;;;;5008293;28;20001;-77
2024/03/16 12:23:19;;;;;;;;;;;18.40;72.50;;;;;;5005951;28;20052;-79
2024/03/16 12:25:48;;;;;;;;;;;19.00;71.40;;;;;;5004871;28;20081;-80
2024/03/16 12:28:13;;;;;;;;;;;19.40;73.00;;;;;;5003430;28;20013;-78
2024/03/16 12:30:39;;;;;;;;;;;19.70;71.80;;;;;;5006087;28;20454;-81
2024/03/16 12:33:09;;;;;;;;;;;19.60;69.80;;;;;;5005492;28;20077;-80
2024/03/16 12:35:35;;;;;;;;;;;19.50;70.50;;;;;;5002684;28;20013;-79
2024/03/16 12:38:02;;;;;;;;;;;19.60;73.80;;;;;;5007974;28;20025;-78
2024/03/16 12:40:27;;;;;;;;;;;19.30;72.50;;;;;;5002759;28;19987;-80
2024/03/16 12:42:54;;;;;;;;;;;19.20;74.50;;;;;;5003175;28;20418;-79
2024/03/16 12:45:19;;;;;;;;;;;19.40;75.10;;;;;;5009464;28;19994;-79
2024/03/16 12:47:46;;;;;;;;;;;18.90;70.80;;;;;;5002166;28;20000;-78
2024/03/16 12:50:11;;;;;;;;;;;18.90;70.20;;;;;;5003574;28;20390;-78
2024/03/16 12:52:37;;;;;;;;;;;18.90;75.20;;;;;;5001256;28;19994;-79
2024/03/16 12:55:03;;;;;;;;;;;18.70;74.10;;;;;;5006238;28;19990;-80
2024/03/16 12:57:31;;;;;;;;;;;18.60;74.20;;;;;;5002887;28;20022;-82
2024/03/16 12:59:57;;;;;;;;;;;18.70;74.20;;;;;;5003928;28;20056;-78
2024/03/16 13:02:22;;;;;;;;;;;18.30;73.80;;;;;;5004332;28;20481;-79
2024/03/16 13:04:48;;;;;;;;;;;18.00;71.10;;;;;;5004156;28;20064;-78
2024/03/16 13:07:14;;;;;;;;;;;17.80;73.10;;;;;;5006149;28;19990;-79
2024/03/16 13:09:40;;;;;;;;;;;18.00;75.00;;;;;;5001839;28;20453;-78
2024/03/16 13:12:10;;;;;;;;;;;18.40;74.30;;;;;;5003070;28;20385;-79
2024/03/16 13:14:36;;;;;;;;;;;18.40;73.10;;;;;;5001563;28;19987;-79
2024/03/16 13:17:02;;;;;;;;;;;18.50;69.50;;;;;;5000134;28;20037;-79
2024/03/16 13:19:27;;;;;;;;;;;18.50;71.40;;;;;;5001571;28;20001;-79
2024/03/16 13:21:53;;;;;;;;;;;18.90;70.90;;;;;;5001751;28;20017;-78
2024/03/16 13:24:22;;;;;;;;;;;18.80;70.80;;;;;;5002218;28;19995;-77
2024/03/16 13:26:48;;;;;;;;;;;18.60;73.50;;;;;;5002994;28;19994;-82
2024/03/16 13:29:14;;;;;;;;;;;18.70;71.80;;;;;;5001603;28;20377;-78
2024/03/16 13:31:40;;;;;;;;;;;18.80;69.30;;;;;;5015784;28;19997;-79
2024/03/16 13:34:07;;;;;;;;;;;18.70;68.60;;;;;;5011024;28;19990;-75
2024/03/16 13:36:36;;;;;;;;;;;18.50;69.60;;;;;;5006714;28;19994;-79
2024/03/16 13:39:06;;;;;;;;;;;18.30;69.60;;;;;;5007759;28;20421;-78
2024/03/16 13:41:32;;;;;;;;;;;18.40;72.60;;;;;;5008003;28;20002;-79
2024/03/16 13:43:58;;;;;;;;;;;18.20;74.80;;;;;;5008389;28;19995;-79
2024/03/16 13:46:24;;;;;;;;;;;18.10;75.20;;;;;;5008243;28;19998;-77
2024/03/16 13:49:00;;;;;;;;;;;18.30;72.50;;;;;;5009468;28;19990;-78
2024/03/16 13:51:26;;;;;;;;;;;18.40;74.60;;;;;;5009531;28;19993;-77
2024/03/16 13:53:52;;;;;;;;;;;18.20;73.10;;;;;;5009656;28;20072;-76
2024/03/16 13:56:18;;;;;;;;;;;17.90;73.00;;;;;;5019416;28;20601;-79
2024/03/16 13:58:44;;;;;;;;;;;17.80;73.70;;;;;;5010571;28;20646;-80
2024/03/16 14:01:09;;;;;;;;;;;17.80;74.30;;;;;;5004238;28;20001;-77
2024/03/16 14:03:35;;;;;;;;;;;17.90;74.40;;;;;;5011132;28;20444;-80
2024/03/16 14:06:00;;;;;;;;;;;17.90;74.40;;;;;;5005256;28;20048;-77
2024/03/16 14:08:26;;;;;;;;;;;18.00;74.70;;;;;;5005766;28;19990;-77
2024/03/16 14:10:51;;;;;;;;;;;18.10;74.00;;;;;;5005224;28;20469;-75
2024/03/16 14:13:17;;;;;;;;;;;18.20;72.40;;;;;;5005498;28;20508;-77